Time;durP1;ratioP1;P1;durP2;ratioP2;P2;SDS_P1;SDS_P2;PMS_P1;PMS_P2;Temp;Humidity;BMP_temperature;BMP_pressure;BME280_temperature;BME280_humidity;BME280_pressure;Samples;Min_cycle;Max_cycle;Signal;HPM_P1;HPM_P2
2022/08/09 00:01:00;;;;;;;2.22;1.20;;;;;;;;;;4948892;28;20194;-72
2022/08/09 00:03:25;;;;;;;1.33;1.02;;;;;;;;;;4928334;28;20385;-73
2022/08/09 00:05:51;;;;;;;3.53;1.33;;;;;;;;;;4947220;28;20495;-73
2022/08/09 00:08:17;;;;;;;1.98;1.35;;;;;;;;;;4935567;28;20067;-74
2022/08/09 00:10:42;;;;;;;2.13;1.40;;;;;;;;;;4934984;28;20031;-73
2022/08/09 00:13:08;;;;;;;2.92;1.38;;;;;;;;;;4942887;28;20046;-73
2022/08/09 00:15:34;;;;;;;3.22;1.40;;;;;;;;;;4944895;28;20031;-73
2022/08/09 00:17:59;;;;;;;1.80;1.60;;;;;;;;;;4927650;28;20105;-73
2022/08/09 00:20:25;;;;;;;2.47;1.45;;;;;;;;;;4925059;28;20145;-73
2022/08/09 00:22:50;;;;;;;2.53;1.52;;;;;;;;;;4933951;28;20039;-73
2022/08/09 00:25:15;;;;;;;4.65;1.85;;;;;;;;;;4941275;28;21001;-73
2022/08/09 00:27:41;;;;;;;2.13;1.42;;;;;;;;;;4928890;29;20102;-73
2022/08/09 00:30:07;;;;;;;3.53;1.70;;;;;;;;;;4924912;29;20044;-73
2022/08/09 00:32:32;;;;;;;2.45;1.65;;;;;;;;;;4941689;28;20499;-73
2022/08/09 00:34:59;;;;;;;3.80;1.42;;;;;;;;;;4935096;28;20095;-72
2022/08/09 00:37:24;;;;;;;1.60;1.50;;;;;;;;;;4954386;28;20047;-72
2022/08/09 00:39:51;;;;;;;2.63;1.50;;;;;;;;;;4927768;29;20404;-73
2022/08/09 00:42:16;;;;;;;2.45;1.20;;;;;;;;;;4951321;28;20037;-72
2022/08/09 00:44:42;;;;;;;2.63;1.45;;;;;;;;;;4934572;28;20111;-73
2022/08/09 00:47:07;;;;;;;1.30;1.20;;;;;;;;;;4934414;28;20629;-73
2022/08/09 00:49:36;;;;;;;2.38;1.17;;;;;;;;;;4940087;28;20098;-73
2022/08/09 00:52:01;;;;;;;2.10;1.40;;;;;;;;;;4927111;29;20052;-73
2022/08/09 00:54:27;;;;;;;1.45;1.35;;;;;;;;;;4944891;28;20186;-73
2022/08/09 00:56:53;;;;;;;4.78;1.40;;;;;;;;;;4930623;28;20045;-73
2022/08/09 00:59:18;;;;;;;1.80;1.40;;;;;;;;;;4938428;28;20043;-73
2022/08/09 01:01:47;;;;;;;2.00;1.40;;;;;;;;;;4946167;28;20146;-74
2022/08/09 01:04:45;;;;;;;1.98;1.30;;;;;;;;;;4950606;28;20119;-74
2022/08/09 01:07:35;;;;;;;2.88;1.60;;;;;;;;;;4944573;28;20041;-73
2022/08/09 01:10:22;;;;;;;6.60;1.50;;;;;;;;;;4927638;28;20040;-74
2022/08/09 01:13:02;;;;;;;4.35;1.35;;;;;;;;;;4948308;28;20031;-72
2022/08/09 01:15:32;;;;;;;1.83;1.42;;;;;;;;;;4947927;28;20047;-73
2022/08/09 01:18:06;;;;;;;1.63;1.30;;;;;;;;;;4943387;28;20502;-73
2022/08/09 01:20:47;;;;;;;2.22;1.58;;;;;;;;;;4931134;28;20039;-73
2022/08/09 01:23:32;;;;;;;3.33;1.23;;;;;;;;;;4938013;28;20483;-72
2022/08/09 01:26:17;;;;;;;2.05;1.23;;;;;;;;;;4943343;28;20470;-74
2022/08/09 01:28:46;;;;;;;1.73;1.10;;;;;;;;;;4950159;28;20592;-73
2022/08/09 01:31:18;;;;;;;2.60;1.42;;;;;;;;;;4943149;28;20028;-72
2022/08/09 01:33:46;;;;;;;1.55;1.40;;;;;;;;;;4946686;28;20058;-73
2022/08/09 01:36:21;;;;;;;1.30;1.10;;;;;;;;;;4928608;28;20519;-74
2022/08/09 01:38:49;;;;;;;2.90;1.45;;;;;;;;;;4927857;28;20036;-73
2022/08/09 01:41:17;;;;;;;2.67;1.10;;;;;;;;;;4923281;28;20088;-74
2022/08/09 01:43:47;;;;;;;1.40;1.20;;;;;;;;;;4925033;28;20035;-73
2022/08/09 01:46:14;;;;;;;1.75;1.23;;;;;;;;;;4928275;28;20024;-73
2022/08/09 01:48:41;;;;;;;2.10;1.20;;;;;;;;;;4929479;29;20023;-73
2022/08/09 01:51:08;;;;;;;2.70;1.70;;;;;;;;;;4924917;28;20448;-73
2022/08/09 01:53:35;;;;;;;3.67;1.40;;;;;;;;;;4941748;28;20107;-74
2022/08/09 01:56:02;;;;;;;2.45;1.40;;;;;;;;;;4948799;28;20381;-73
2022/08/09 01:58:29;;;;;;;2.08;1.15;;;;;;;;;;4942886;28;20035;-73
2022/08/09 02:00:57;;;;;;;1.30;1.20;;;;;;;;;;4936788;28;20035;-73
2022/08/09 02:03:23;;;;;;;3.80;1.27;;;;;;;;;;4926686;29;20453;-73
2022/08/09 02:05:53;;;;;;;3.63;1.10;;;;;;;;;;4925566;28;20499;-73
2022/08/09 02:08:22;;;;;;;2.10;1.20;;;;;;;;;;4938907;28;20039;-73
2022/08/09 02:10:49;;;;;;;3.30;1.40;;;;;;;;;;4939502;28;20031;-73
2022/08/09 02:13:17;;;;;;;3.45;1.40;;;;;;;;;;4929774;28;20492;-74
2022/08/09 02:15:48;;;;;;;3.50;1.50;;;;;;;;;;4929397;29;20106;-73
2022/08/09 02:18:18;;;;;;;1.73;1.23;;;;;;;;;;4924837;28;20039;-72
2022/08/09 02:20:48;;;;;;;2.33;1.33;;;;;;;;;;4926853;28;20059;-72
2022/08/09 02:23:22;;;;;;;2.20;1.20;;;;;;;;;;4923733;28;20040;-72
2022/08/09 02:25:51;;;;;;;1.40;1.30;;;;;;;;;;4925333;28;20040;-73
2022/08/09 02:28:20;;;;;;;1.40;1.25;;;;;;;;;;4929591;28;20035;-73
2022/08/09 02:30:54;;;;;;;3.50;1.33;;;;;;;;;;4946119;28;20475;-73
2022/08/09 02:33:23;;;;;;;2.42;1.40;;;;;;;;;;4945314;28;20039;-73
2022/08/09 02:35:55;;;;;;;1.85;1.20;;;;;;;;;;4948727;28;20035;-73
2022/08/09 02:38:26;;;;;;;2.38;1.60;;;;;;;;;;4934067;28;20043;-73
2022/08/09 02:40:55;;;;;;;5.22;1.65;;;;;;;;;;4929054;28;20039;-73
2022/08/09 02:43:23;;;;;;;2.47;1.55;;;;;;;;;;4944281;28;20075;-73
2022/08/09 02:45:51;;;;;;;4.03;1.50;;;;;;;;;;4945376;28;20034;-72
2022/08/09 02:48:18;;;;;;;2.63;1.40;;;;;;;;;;4925703;28;20683;-74
2022/08/09 02:50:49;;;;;;;5.38;1.90;;;;;;;;;;4941556;28;20043;-73
2022/08/09 02:53:23;;;;;;;1.80;1.30;;;;;;;;;;4935917;28;20059;-73
2022/08/09 02:55:50;;;;;;;1.88;1.35;;;;;;;;;;4933329;28;20078;-72
2022/08/09 02:58:17;;;;;;;2.30;1.45;;;;;;;;;;4941119;28;20074;-74
2022/08/09 03:00:44;;;;;;;2.80;1.60;;;;;;;;;;4927016;29;20090;-73
2022/08/09 03:03:11;;;;;;;2.80;1.33;;;;;;;;;;4942453;28;20523;-73
2022/08/09 03:05:38;;;;;;;2.58;1.42;;;;;;;;;;4945889;28;20051;-74
2022/08/09 03:08:04;;;;;;;2.53;1.63;;;;;;;;;;4943982;28;20054;-74
2022/08/09 03:10:31;;;;;;;2.95;1.38;;;;;;;;;;4939009;28;20110;-73
2022/08/09 03:12:59;;;;;;;5.05;1.65;;;;;;;;;;4927242;29;20475;-73
2022/08/09 03:15:24;;;;;;;1.77;1.40;;;;;;;;;;4943860;28;21745;-73
2022/08/09 03:17:52;;;;;;;2.63;1.48;;;;;;;;;;4932121;28;20437;-73
2022/08/09 03:20:18;;;;;;;4.22;1.50;;;;;;;;;;4922409;29;20044;-73
2022/08/09 03:22:46;;;;;;;2.03;1.40;;;;;;;;;;4933128;28;20042;-73
2022/08/09 03:25:12;;;;;;;1.85;1.20;;;;;;;;;;4940269;28;20023;-73
2022/08/09 03:27:43;;;;;;;1.55;1.45;;;;;;;;;;4925988;29;20427;-71
2022/08/09 03:30:11;;;;;;;2.83;1.45;;;;;;;;;;4939319;28;20046;-74
2022/08/09 03:32:36;;;;;;;4.55;1.70;;;;;;;;;;4931194;28;20047;-73
2022/08/09 03:35:02;;;;;;;2.13;1.42;;;;;;;;;;4942252;28;20093;-73
2022/08/09 03:37:28;;;;;;;3.50;1.42;;;;;;;;;;4945125;28;20051;-73
2022/08/09 03:39:54;;;;;;;2.55;1.60;;;;;;;;;;4928589;29;20050;-73
2022/08/09 03:42:19;;;;;;;2.08;1.50;;;;;;;;;;4948462;28;20046;-73
2022/08/09 03:44:44;;;;;;;1.77;1.58;;;;;;;;;;4936407;28;20428;-72
2022/08/09 03:47:10;;;;;;;3.47;1.60;;;;;;;;;;4926250;28;20114;-73
2022/08/09 03:49:37;;;;;;;4.72;1.95;;;;;;;;;;4932245;28;21179;-73
2022/08/09 03:52:03;;;;;;;2.95;1.20;;;;;;;;;;4946847;28;20030;-72
2022/08/09 03:54:32;;;;;;;4.10;1.60;;;;;;;;;;4928726;29;20035;-72
2022/08/09 03:57:03;;;;;;;2.83;1.70;;;;;;;;;;4947556;28;20038;-73
2022/08/09 03:59:28;;;;;;;2.10;1.42;;;;;;;;;;4946462;28;20051;-73
2022/08/09 04:01:58;;;;;;;1.60;1.50;;;;;;;;;;4944091;28;20107;-72
2022/08/09 04:04:24;;;;;;;5.25;1.88;;;;;;;;;;4929506;28;21533;-73
2022/08/09 04:06:50;;;;;;;3.97;1.52;;;;;;;;;;4969024;28;20059;-75
2022/08/09 04:09:15;;;;;;;4.53;1.67;;;;;;;;;;4947156;28;20136;-74
2022/08/09 04:11:57;;;;;;;3.15;1.55;;;;;;;;;;4947699;28;20491;-73
2022/08/09 04:14:23;;;;;;;3.58;1.40;;;;;;;;;;4949764;28;20511;-74
2022/08/09 04:16:48;;;;;;;4.22;1.50;;;;;;;;;;4937848;28;20088;-74
2022/08/09 04:19:13;;;;;;;5.28;1.70;;;;;;;;;;4931187;28;20399;-73
2022/08/09 04:21:39;;;;;;;2.58;1.80;;;;;;;;;;4946893;28;20110;-74
2022/08/09 04:24:05;;;;;;;2.30;1.60;;;;;;;;;;4929481;28;20040;-73
2022/08/09 04:26:31;;;;;;;2.53;1.42;;;;;;;;;;4941437;28;20134;-74
2022/08/09 04:28:56;;;;;;;2.63;1.60;;;;;;;;;;4949370;28;20099;-73
2022/08/09 04:31:22;;;;;;;1.60;1.40;;;;;;;;;;4944077;28;20094;-73
2022/08/09 04:33:47;;;;;;;5.22;1.60;;;;;;;;;;4944447;28;20031;-73
2022/08/09 04:36:13;;;;;;;6.70;1.52;;;;;;;;;;4942295;28;20035;-72
2022/08/09 04:38:38;;;;;;;4.38;2.20;;;;;;;;;;4944856;28;20031;-72
2022/08/09 04:41:03;;;;;;;5.50;1.55;;;;;;;;;;4942400;28;20106;-71
2022/08/09 04:43:29;;;;;;;3.17;1.70;;;;;;;;;;4944737;28;20039;-74
2022/08/09 04:45:54;;;;;;;4.07;1.50;;;;;;;;;;4947307;28;20067;-73
2022/08/09 04:48:20;;;;;;;2.35;1.85;;;;;;;;;;4945767;28;20046;-72
2022/08/09 04:50:45;;;;;;;4.18;1.70;;;;;;;;;;4949234;28;20039;-72
2022/08/09 04:53:11;;;;;;;2.38;1.70;;;;;;;;;;4948232;28;20031;-73
2022/08/09 04:55:37;;;;;;;5.00;2.28;;;;;;;;;;4945185;28;20047;-72
2022/08/09 04:58:03;;;;;;;3.58;1.80;;;;;;;;;;4944214;28;20115;-74
2022/08/09 05:00:29;;;;;;;3.33;2.10;;;;;;;;;;4941851;28;20066;-73
2022/08/09 05:02:55;;;;;;;5.18;2.03;;;;;;;;;;4948790;28;20070;-73
2022/08/09 05:05:21;;;;;;;2.83;1.80;;;;;;;;;;4943392;28;20072;-73
2022/08/09 05:07:46;;;;;;;3.08;2.00;;;;;;;;;;4945015;28;20059;-72
2022/08/09 05:10:13;;;;;;;4.43;1.92;;;;;;;;;;4943829;28;20066;-73
2022/08/09 05:12:39;;;;;;;4.97;1.90;;;;;;;;;;4944403;28;20031;-73
2022/08/09 05:15:05;;;;;;;2.88;2.08;;;;;;;;;;4942528;28;20055;-74
2022/08/09 05:17:31;;;;;;;3.55;1.80;;;;;;;;;;4945136;28;20539;-73
2022/08/09 05:19:56;;;;;;;2.80;1.75;;;;;;;;;;4943743;28;20135;-73
2022/08/09 05:22:22;;;;;;;2.25;1.92;;;;;;;;;;4946626;28;20640;-72
2022/08/09 05:24:47;;;;;;;2.10;1.80;;;;;;;;;;4946638;28;20120;-73
2022/08/09 05:27:13;;;;;;;3.00;2.05;;;;;;;;;;4944798;28;20054;-73
2022/08/09 05:29:38;;;;;;;3.15;1.90;;;;;;;;;;4946797;28;20499;-73
2022/08/09 05:32:04;;;;;;;5.93;1.63;;;;;;;;;;4946914;28;20728;-71
2022/08/09 05:34:30;;;;;;;3.78;1.58;;;;;;;;;;4945596;28;20105;-72
2022/08/09 05:36:56;;;;;;;2.63;1.70;;;;;;;;;;4946100;28;20407;-71
2022/08/09 05:39:22;;;;;;;2.83;2.00;;;;;;;;;;4942129;28;20103;-73
2022/08/09 05:41:48;;;;;;;6.80;2.17;;;;;;;;;;4945225;28;20047;-74
2022/08/09 05:44:13;;;;;;;4.53;2.40;;;;;;;;;;4945351;28;20403;-74
2022/08/09 05:46:39;;;;;;;4.82;2.03;;;;;;;;;;4944221;28;20107;-72
2022/08/09 05:49:05;;;;;;;4.18;1.80;;;;;;;;;;4946137;28;20027;-72
2022/08/09 05:51:30;;;;;;;3.65;2.08;;;;;;;;;;4944531;28;20053;-73
2022/08/09 05:53:56;;;;;;;4.25;1.65;;;;;;;;;;4944735;28;20399;-73
2022/08/09 05:56:21;;;;;;;2.10;1.67;;;;;;;;;;4932164;28;20380;-73
2022/08/09 05:58:47;;;;;;;11.20;2.42;;;;;;;;;;4934687;28;20054;-73
2022/08/09 06:01:13;;;;;;;5.90;1.70;;;;;;;;;;4944438;28;20623;-73
2022/08/09 06:03:38;;;;;;;5.57;1.70;;;;;;;;;;4947660;28;20023;-72
2022/08/09 06:06:04;;;;;;;2.60;1.70;;;;;;;;;;4946000;28;20183;-73
2022/08/09 06:08:29;;;;;;;3.50;2.05;;;;;;;;;;4944674;28;20039;-73
2022/08/09 06:10:55;;;;;;;2.83;1.63;;;;;;;;;;4944870;28;20183;-72
2022/08/09 06:13:21;;;;;;;4.22;1.90;;;;;;;;;;4947286;28;20098;-72
2022/08/09 06:15:50;;;;;;;4.70;1.75;;;;;;;;;;4943598;28;20447;-72
2022/08/09 06:18:16;;;;;;;3.35;1.55;;;;;;;;;;4927899;28;20078;-74
2022/08/09 06:20:41;;;;;;;4.43;1.88;;;;;;;;;;4940736;28;20059;-73
2022/08/09 06:23:07;;;;;;;2.30;1.90;;;;;;;;;;4938845;28;20035;-73
2022/08/09 06:25:32;;;;;;;5.13;1.90;;;;;;;;;;4931151;28;20062;-72
2022/08/09 06:27:58;;;;;;;3.42;1.70;;;;;;;;;;4948752;28;20031;-71
2022/08/09 06:30:23;;;;;;;6.65;2.20;;;;;;;;;;4925850;29;20577;-71
2022/08/09 06:32:51;;;;;;;7.63;2.17;;;;;;;;;;4940523;28;20078;-72
2022/08/09 06:35:17;;;;;;;5.97;1.90;;;;;;;;;;4934043;28;20038;-71
2022/08/09 06:37:43;;;;;;;4.90;1.77;;;;;;;;;;4935094;28;20032;-73
2022/08/09 06:40:09;;;;;;;6.40;2.30;;;;;;;;;;4945500;28;20035;-72
2022/08/09 06:42:34;;;;;;;4.43;2.00;;;;;;;;;;4931061;29;20026;-72
2022/08/09 06:44:59;;;;;;;7.60;1.75;;;;;;;;;;4943865;28;20764;-73
2022/08/09 06:47:25;;;;;;;6.43;1.85;;;;;;;;;;4944024;28;20555;-72
2022/08/09 06:49:52;;;;;;;2.45;1.45;;;;;;;;;;4944499;28;20038;-72
2022/08/09 06:52:17;;;;;;;4.40;1.63;;;;;;;;;;4942756;28;20081;-73
2022/08/09 06:54:43;;;;;;;5.13;1.85;;;;;;;;;;4942785;28;20620;-72
2022/08/09 06:57:08;;;;;;;4.70;1.83;;;;;;;;;;4942587;28;20507;-72
2022/08/09 06:59:33;;;;;;;3.78;1.30;;;;;;;;;;4941896;28;20047;-72
2022/08/09 07:01:59;;;;;;;3.97;1.23;;;;;;;;;;4930170;28;20508;-72
2022/08/09 07:04:24;;;;;;;5.15;1.50;;;;;;;;;;4919320;29;20492;-72
2022/08/09 07:06:50;;;;;;;4.47;1.40;;;;;;;;;;4926259;29;20111;-72
2022/08/09 07:09:15;;;;;;;2.45;1.35;;;;;;;;;;4948996;28;20456;-72
2022/08/09 07:11:41;;;;;;;3.47;1.50;;;;;;;;;;4953771;28;20039;-72
2022/08/09 07:14:06;;;;;;;3.97;1.48;;;;;;;;;;4981643;28;20140;-72
2022/08/09 07:16:33;;;;;;;3.63;1.40;;;;;;;;;;4954697;28;20050;-73
2022/08/09 07:18:58;;;;;;;1.73;1.45;;;;;;;;;;4950859;28;20027;-72
2022/08/09 07:21:23;;;;;;;2.58;1.67;;;;;;;;;;4950283;28;20479;-73
2022/08/09 07:23:49;;;;;;;5.22;1.92;;;;;;;;;;4950424;28;20038;-72
2022/08/09 07:26:15;;;;;;;2.20;1.55;;;;;;;;;;4951498;28;20522;-73
2022/08/09 07:28:40;;;;;;;4.15;1.40;;;;;;;;;;4954566;28;20046;-72
2022/08/09 07:31:06;;;;;;;2.25;1.38;;;;;;;;;;4952674;28;20034;-73
2022/08/09 07:33:32;;;;;;;3.35;1.52;;;;;;;;;;4965153;28;20122;-71
2022/08/09 07:35:57;;;;;;;3.08;1.60;;;;;;;;;;4950648;28;20035;-72
2022/08/09 07:38:23;;;;;;;8.45;1.60;;;;;;;;;;4946485;28;20493;-72
2022/08/09 07:40:48;;;;;;;3.22;1.40;;;;;;;;;;4950137;28;20061;-72
2022/08/09 07:43:14;;;;;;;1.95;1.67;;;;;;;;;;4965045;28;20229;-72
2022/08/09 07:45:39;;;;;;;3.55;1.45;;;;;;;;;;4950371;28;20030;-72
2022/08/09 07:48:06;;;;;;;2.25;1.30;;;;;;;;;;4947760;28;20046;-72
2022/08/09 07:50:32;;;;;;;1.88;1.10;;;;;;;;;;4951938;28;20093;-72
2022/08/09 07:52:58;;;;;;;4.75;1.20;;;;;;;;;;4954216;28;20553;-71
2022/08/09 07:55:23;;;;;;;2.35;1.30;;;;;;;;;;4947463;28;20039;-71
2022/08/09 07:57:49;;;;;;;6.90;1.58;;;;;;;;;;4951377;28;20031;-72
2022/08/09 08:00:19;;;;;;;2.75;1.08;;;;;;;;;;4946797;28;20074;-71
2022/08/09 08:02:45;;;;;;;5.75;1.30;;;;;;;;;;4949026;28;20069;-72
2022/08/09 08:05:11;;;;;;;5.15;1.40;;;;;;;;;;4948286;28;20095;-72
2022/08/09 08:07:36;;;;;;;3.58;1.38;;;;;;;;;;4974291;28;20504;-72
2022/08/09 08:10:03;;;;;;;5.43;1.40;;;;;;;;;;4929953;28;20032;-71
2022/08/09 08:12:28;;;;;;;3.95;1.52;;;;;;;;;;4930729;29;20050;-71
2022/08/09 08:14:53;;;;;;;9.38;1.67;;;;;;;;;;4929941;28;20035;-71
2022/08/09 08:17:19;;;;;;;3.78;1.52;;;;;;;;;;4930846;28;20035;-71
2022/08/09 08:19:45;;;;;;;3.42;1.60;;;;;;;;;;4931360;28;20040;-72
2022/08/09 08:22:10;;;;;;;1.70;1.30;;;;;;;;;;4924663;28;20024;-71
2022/08/09 08:24:35;;;;;;;5.18;1.45;;;;;;;;;;4946806;28;20035;-72
2022/08/09 08:27:01;;;;;;;2.80;1.48;;;;;;;;;;4929029;28;20114;-72
2022/08/09 08:29:26;;;;;;;5.43;1.40;;;;;;;;;;4926450;28;20044;-72
2022/08/09 08:31:52;;;;;;;4.35;1.30;;;;;;;;;;4937269;28;20031;-72
2022/08/09 08:34:17;;;;;;;5.13;1.70;;;;;;;;;;4948286;28;20099;-71
2022/08/09 08:36:43;;;;;;;4.57;1.70;;;;;;;;;;4945922;28;20023;-71
2022/08/09 08:39:10;;;;;;;3.00;1.27;;;;;;;;;;4945635;28;20500;-71
2022/08/09 08:41:36;;;;;;;3.10;1.42;;;;;;;;;;4945376;28;20421;-71
2022/08/09 08:44:02;;;;;;;4.40;1.25;;;;;;;;;;4936063;28;20130;-71
2022/08/09 08:46:33;;;;;;;1.88;1.40;;;;;;;;;;4925260;28;20158;-72
2022/08/09 08:48:59;;;;;;;2.83;1.40;;;;;;;;;;4926052;29;20144;-71
2022/08/09 08:51:25;;;;;;;1.88;1.30;;;;;;;;;;4945854;28;20114;-71
2022/08/09 08:53:51;;;;;;;4.72;1.30;;;;;;;;;;4948819;28;20108;-72
2022/08/09 08:56:18;;;;;;;5.05;1.58;;;;;;;;;;4937220;28;20575;-72
2022/08/09 08:58:45;;;;;;;3.75;1.60;;;;;;;;;;4930612;28;20384;-71
2022/08/09 09:01:11;;;;;;;10.75;1.55;;;;;;;;;;4946426;28;20031;-71
2022/08/09 09:03:37;;;;;;;3.05;1.40;;;;;;;;;;4947917;28;20046;-72
2022/08/09 09:06:04;;;;;;;6.03;1.42;;;;;;;;;;4946890;28;20039;-71
2022/08/09 09:08:34;;;;;;;3.17;1.40;;;;;;;;;;4943573;28;20031;-71
2022/08/09 09:11:02;;;;;;;2.50;1.15;;;;;;;;;;4945699;28;20190;-72
2022/08/09 09:13:29;;;;;;;5.13;1.27;;;;;;;;;;4949946;28;20503;-72
2022/08/09 09:15:55;;;;;;;3.13;1.40;;;;;;;;;;4943710;28;20057;-71
2022/08/09 09:18:20;;;;;;;2.78;1.25;;;;;;;;;;4941302;28;20043;-72
2022/08/09 09:20:46;;;;;;;4.57;1.40;;;;;;;;;;4946023;28;20552;-71
2022/08/09 09:23:11;;;;;;;9.00;1.50;;;;;;;;;;4934355;28;20418;-72
2022/08/09 09:25:42;;;;;;;2.47;1.40;;;;;;;;;;4927376;29;20143;-72
2022/08/09 09:28:10;;;;;;;3.33;1.40;;;;;;;;;;4926220;28;20087;-71
2022/08/09 09:30:55;;;;;;;4.53;1.20;;;;;;;;;;4926425;28;20027;-71
2022/08/09 09:33:31;;;;;;;2.88;1.52;;;;;;;;;;4926305;29;20050;-71
2022/08/09 09:35:58;;;;;;;2.40;1.30;;;;;;;;;;4941967;28;20137;-71
2022/08/09 09:38:46;;;;;;;4.28;1.20;;;;;;;;;;4945043;28;20114;-71
2022/08/09 09:41:27;;;;;;;4.05;1.40;;;;;;;;;;4937013;28;20070;-70
2022/08/09 09:43:55;;;;;;;3.33;1.17;;;;;;;;;;4935195;28;20035;-72
2022/08/09 09:46:29;;;;;;;5.18;1.38;;;;;;;;;;4936713;28;20510;-72
2022/08/09 09:49:00;;;;;;;5.97;1.17;;;;;;;;;;4925912;29;20110;-74
2022/08/09 09:51:29;;;;;;;4.53;1.40;;;;;;;;;;4926177;29;20061;-71
2022/08/09 09:54:12;;;;;;;4.45;1.30;;;;;;;;;;4924318;28;20063;-72
2022/08/09 09:56:39;;;;;;;;;;;;;;;;;;4941429;28;20696;-70
2022/08/09 09:59:09;;;;;;;2.40;1.30;;;;;;;;;;4935397;28;19933;-72
2022/08/09 10:01:35;;;;;;;2.20;1.35;;;;;;;;;;4929399;28;20042;-71
2022/08/09 10:04:03;;;;;;;1.83;1.13;;;;;;;;;;4947438;28;21827;-72
2022/08/09 10:06:41;;;;;;;2.90;1.38;;;;;;;;;;4925797;29;20292;-71
2022/08/09 10:09:07;;;;;;;6.00;1.30;;;;;;;;;;4942598;28;21411;-71
2022/08/09 10:11:34;;;;;;;3.70;0.98;;;;;;;;;;4945127;28;20047;-71
2022/08/09 10:14:00;;;;;;;9.07;1.50;;;;;;;;;;4943735;28;20098;-71
2022/08/09 10:16:31;;;;;;;3.90;1.30;;;;;;;;;;4942350;28;20040;-72
2022/08/09 10:19:00;;;;;;;3.05;1.20;;;;;;;;;;4944701;28;20049;-71
2022/08/09 10:21:26;;;;;;;3.78;1.20;;;;;;;;;;4955174;28;20048;-71
2022/08/09 10:23:54;;;;;;;3.53;1.40;;;;;;;;;;4946359;28;20047;-71
2022/08/09 10:26:21;;;;;;;3.13;1.48;;;;;;;;;;4942495;28;20061;-71
2022/08/09 10:28:46;;;;;;;1.58;1.17;;;;;;;;;;4943140;28;20035;-71
2022/08/09 10:31:14;;;;;;;4.22;1.23;;;;;;;;;;4943108;28;20037;-72
2022/08/09 10:33:40;;;;;;;1.67;1.13;;;;;;;;;;4943527;28;20093;-71
2022/08/09 10:36:08;;;;;;;2.88;1.70;;;;;;;;;;4944055;28;20499;-71
2022/08/09 10:38:34;;;;;;;5.68;1.73;;;;;;;;;;4946672;28;20051;-71
2022/08/09 10:41:00;;;;;;;2.28;1.50;;;;;;;;;;4941031;28;20511;-71
2022/08/09 10:43:27;;;;;;;4.43;1.30;;;;;;;;;;4942240;28;20054;-71
2022/08/09 10:45:52;;;;;;;4.38;1.17;;;;;;;;;;4940628;28;20034;-72
2022/08/09 10:48:39;;;;;;;5.45;1.60;;;;;;;;;;4942630;28;20066;-71
2022/08/09 10:51:13;;;;;;;3.75;1.52;;;;;;;;;;4945158;28;20043;-71
2022/08/09 10:54:04;;;;;;;8.75;1.33;;;;;;;;;;4944115;28;20983;-70
2022/08/09 10:56:32;;;;;;;1.55;1.45;;;;;;;;;;4940007;28;20035;-70
2022/08/09 10:59:02;;;;;;;4.10;1.20;;;;;;;;;;4942103;28;20057;-70
2022/08/09 11:01:30;;;;;;;3.65;1.20;;;;;;;;;;4938972;28;20531;-71
2022/08/09 11:04:07;;;;;;;1.85;1.05;;;;;;;;;;4940844;28;20496;-71
2022/08/09 11:06:35;;;;;;;6.13;1.40;;;;;;;;;;4942005;28;20039;-71
2022/08/09 11:09:01;;;;;;;4.35;1.17;;;;;;;;;;4943486;28;20138;-72
2022/08/09 11:11:58;;;;;;;4.32;1.13;;;;;;;;;;4938617;28;20038;-71
2022/08/09 11:14:34;;;;;;;4.43;1.20;;;;;;;;;;4954067;28;20127;-71
2022/08/09 11:17:26;;;;;;;3.88;1.20;;;;;;;;;;4938993;28;20081;-71
2022/08/09 11:20:08;;;;;;;6.05;1.02;;;;;;;;;;4938792;28;20629;-71
2022/08/09 11:22:43;;;;;;;1.23;1.10;;;;;;;;;;4939818;28;20108;-71
2022/08/09 11:25:11;;;;;;;3.45;1.00;;;;;;;;;;4942219;28;20503;-71
2022/08/09 11:27:40;;;;;;;4.55;1.05;;;;;;;;;;4943646;28;20031;-71
2022/08/09 11:30:25;;;;;;;2.13;1.08;;;;;;;;;;4953095;28;20044;-71
2022/08/09 11:33:15;;;;;;;2.70;1.17;;;;;;;;;;4940017;28;20043;-71
2022/08/09 11:35:59;;;;;;;11.38;1.40;;;;;;;;;;4926964;28;20044;-71
2022/08/09 11:38:33;;;;;;;1.42;1.10;;;;;;;;;;4936269;28;21190;-71
2022/08/09 11:41:12;;;;;;;3.85;0.98;;;;;;;;;;4935630;28;20039;-71
2022/08/09 11:43:41;;;;;;;1.50;1.17;;;;;;;;;;4930045;28;20400;-71
2022/08/09 11:46:07;;;;;;;2.60;1.08;;;;;;;;;;4944058;28;20079;-70
2022/08/09 11:48:45;;;;;;;3.63;1.10;;;;;;;;;;4921925;29;20473;-70
2022/08/09 11:51:11;;;;;;;2.63;1.10;;;;;;;;;;4944733;28;20063;-70
2022/08/09 11:53:38;;;;;;;1.30;1.02;;;;;;;;;;4933469;28;20043;-70
2022/08/09 11:56:16;;;;;;;2.03;1.00;;;;;;;;;;4937703;28;20054;-70
2022/08/09 11:58:45;;;;;;;2.00;1.10;;;;;;;;;;4940854;28;20148;-70
2022/08/09 12:01:13;;;;;;;5.00;1.20;;;;;;;;;;4930251;28;20047;-71
2022/08/09 12:03:39;;;;;;;2.53;1.15;;;;;;;;;;4949941;28;20023;-71
2022/08/09 12:06:11;;;;;;;3.72;1.60;;;;;;;;;;4928925;28;20043;-71
2022/08/09 12:08:43;;;;;;;2.83;1.00;;;;;;;;;;4940375;28;20042;-70
2022/08/09 12:11:11;;;;;;;4.82;1.02;;;;;;;;;;4932090;28;20861;-71
2022/08/09 12:13:40;;;;;;;3.35;1.10;;;;;;;;;;4932122;28;20075;-69
2022/08/09 12:16:11;;;;;;;4.53;1.17;;;;;;;;;;4943776;28;20494;-71
2022/08/09 12:18:38;;;;;;;6.28;1.33;;;;;;;;;;4948012;28;20436;-71
2022/08/09 12:21:08;;;;;;;4.38;1.27;;;;;;;;;;4930584;28;20047;-71
2022/08/09 12:23:41;;;;;;;2.83;1.10;;;;;;;;;;4937151;28;20067;-70
2022/08/09 12:26:07;;;;;;;4.30;1.20;;;;;;;;;;4944784;28;20113;-70
2022/08/09 12:28:33;;;;;;;1.20;1.10;;;;;;;;;;4943914;28;20819;-70
2022/08/09 12:30:59;;;;;;;2.50;1.17;;;;;;;;;;4947774;28;20970;-70
2022/08/09 12:33:25;;;;;;;1.73;1.00;;;;;;;;;;4945565;28;20023;-71
2022/08/09 12:36:03;;;;;;;1.27;1.15;;;;;;;;;;4930725;28;20032;-71
2022/08/09 12:38:29;;;;;;;3.55;1.20;;;;;;;;;;4925213;28;20473;-70
2022/08/09 12:40:57;;;;;;;5.20;1.33;;;;;;;;;;4931665;28;20047;-70
2022/08/09 12:43:25;;;;;;;2.38;1.10;;;;;;;;;;4942828;28;20031;-70
2022/08/09 12:45:52;;;;;;;4.25;1.10;;;;;;;;;;4927976;29;20031;-70
2022/08/09 12:48:18;;;;;;;4.05;1.40;;;;;;;;;;4945209;28;20035;-70
2022/08/09 12:50:44;;;;;;;2.13;1.20;;;;;;;;;;4932020;28;20084;-70
2022/08/09 12:53:26;;;;;;;1.55;1.10;;;;;;;;;;4932617;28;20081;-75
2022/08/09 12:56:02;;;;;;;2.33;1.00;;;;;;;;;;4941020;28;20047;-70
2022/08/09 12:58:27;;;;;;;1.33;1.20;;;;;;;;;;4926859;28;20126;-70
2022/08/09 13:00:53;;;;;;;5.10;1.15;;;;;;;;;;4929144;29;20166;-70
2022/08/09 13:03:26;;;;;;;3.38;1.15;;;;;;;;;;4926509;28;20059;-69
2022/08/09 13:05:53;;;;;;;2.22;1.05;;;;;;;;;;4940356;28;20046;-70
2022/08/09 13:08:20;;;;;;;4.30;1.00;;;;;;;;;;4942790;28;20039;-70
2022/08/09 13:10:51;;;;;;;5.20;1.00;;;;;;;;;;4933535;28;20034;-70
2022/08/09 13:13:38;;;;;;;2.22;1.02;;;;;;;;;;4943874;28;20471;-70
2022/08/09 13:16:04;;;;;;;1.42;1.08;;;;;;;;;;4925554;29;20048;-70
2022/08/09 13:18:41;;;;;;;2.05;0.98;;;;;;;;;;4926288;29;20123;-70
2022/08/09 13:21:21;;;;;;;0.80;0.80;;;;;;;;;;4940357;28;20958;-70
2022/08/09 13:23:47;;;;;;;2.75;0.90;;;;;;;;;;4934127;28;20070;-70
2022/08/09 13:26:32;;;;;;;2.78;1.00;;;;;;;;;;4937275;28;20491;-70
2022/08/09 13:29:08;;;;;;;1.45;1.00;;;;;;;;;;4937750;28;20036;-70
2022/08/09 13:31:34;;;;;;;1.23;0.95;;;;;;;;;;4935399;28;20049;-70
2022/08/09 13:34:00;;;;;;;1.20;0.95;;;;;;;;;;4978960;28;20110;-70
2022/08/09 13:36:26;;;;;;;1.13;1.08;;;;;;;;;;4943280;28;20566;-70
2022/08/09 13:38:51;;;;;;;1.27;1.17;;;;;;;;;;4947357;28;20039;-70
2022/08/09 13:41:21;;;;;;;3.38;0.90;;;;;;;;;;4933430;28;20040;-70
2022/08/09 13:43:46;;;;;;;1.42;1.02;;;;;;;;;;4926151;29;20134;-70
2022/08/09 13:46:12;;;;;;;0.80;0.80;;;;;;;;;;4926328;29;20172;-70
2022/08/09 13:48:37;;;;;;;3.75;0.82;;;;;;;;;;4946958;28;20038;-70
2022/08/09 13:51:03;;;;;;;2.05;1.10;;;;;;;;;;4926767;28;20040;-70
2022/08/09 13:53:29;;;;;;;1.25;1.05;;;;;;;;;;4935497;28;20495;-70
2022/08/09 13:55:54;;;;;;;3.60;1.05;;;;;;;;;;4937576;28;20047;-70
2022/08/09 13:58:20;;;;;;;5.22;1.10;;;;;;;;;;4926643;28;20042;-70
2022/08/09 14:00:45;;;;;;;1.65;1.08;;;;;;;;;;4944979;28;20142;-70
2022/08/09 14:03:10;;;;;;;1.52;1.05;;;;;;;;;;4926664;28;20040;-70
2022/08/09 14:05:36;;;;;;;3.85;1.27;;;;;;;;;;4938663;28;20042;-69
2022/08/09 14:08:04;;;;;;;1.80;1.00;;;;;;;;;;4939889;28;20567;-69
2022/08/09 14:10:30;;;;;;;2.67;0.98;;;;;;;;;;4928583;28;20484;-70
2022/08/09 14:12:55;;;;;;;2.92;1.08;;;;;;;;;;4950410;28;20027;-68
2022/08/09 14:15:21;;;;;;;1.25;1.10;;;;;;;;;;4938104;28;20091;-69
2022/08/09 14:17:46;;;;;;;2.95;1.30;;;;;;;;;;4941682;28;20046;-69
2022/08/09 14:20:11;;;;;;;2.75;1.10;;;;;;;;;;4935345;28;20098;-70
2022/08/09 14:22:37;;;;;;;2.15;1.10;;;;;;;;;;4925108;28;20051;-70
2022/08/09 14:25:03;;;;;;;3.67;1.02;;;;;;;;;;4927784;28;20527;-69
2022/08/09 14:27:28;;;;;;;1.08;0.98;;;;;;;;;;4944981;28;20039;-69
2022/08/09 14:29:53;;;;;;;2.95;1.10;;;;;;;;;;4931009;28;20444;-70
2022/08/09 14:32:19;;;;;;;3.17;1.00;;;;;;;;;;4925250;28;20051;-70
2022/08/09 14:34:44;;;;;;;1.13;0.90;;;;;;;;;;4924148;28;20158;-70
2022/08/09 14:37:10;;;;;;;2.70;1.10;;;;;;;;;;4957300;28;20032;-71
2022/08/09 14:39:36;;;;;;;2.17;1.02;;;;;;;;;;4946231;28;20034;-70
2022/08/09 14:42:02;;;;;;;3.30;1.20;;;;;;;;;;4946810;28;20046;-71
2022/08/09 14:44:27;;;;;;;3.78;1.30;;;;;;;;;;4934788;28;20051;-71
2022/08/09 14:46:53;;;;;;;2.25;0.90;;;;;;;;;;4934658;28;20149;-70
2022/08/09 14:49:19;;;;;;;2.05;1.00;;;;;;;;;;4942494;28;20444;-70